Time;durP1;ratioP1;P1;durP2;ratioP2;P2;SDS_P1;SDS_P2;PMS_P1;PMS_P2;Temp;Humidity;BMP_temperature;BMP_pressure;BME280_temperature;BME280_humidity;BME280_pressure;Samples;Min_cycle;Max_cycle;Signal;HPM_P1;HPM_P2
2023/11/24 00:01:54;;;;;;;;;;;;;;;;;;4986040;28;19957;-69
2023/11/24 00:04:21;;;;;;;;;;;;;;;;;;4996443;28;19933;-70
2023/11/24 00:06:51;;;;;;;;;;;;;;;;;;5004508;28;20377;-69
2023/11/24 00:09:18;;;;;;;;;;;;;;;;;;4989450;28;20305;-70
2023/11/24 00:11:46;;;;;;;;;;;;;;;;;;5002908;28;19925;-70
2023/11/24 00:14:13;;;;;;;;;;;;;;;;;;5010812;28;19947;-70
2023/11/24 00:16:40;;;;;;;;;;;;;;;;;;4992900;28;20036;-70
2023/11/24 00:19:07;;;;;;;;;;;;;;;;;;4979655;28;19980;-69
2023/11/24 00:21:34;;;;;;;;;;;;;;;;;;4990669;28;20396;-70
2023/11/24 00:24:04;;;;;;;;;;;;;;;;;;5005082;28;20424;-70
2023/11/24 00:26:31;;;;;;;;;;;;;;;;;;4991912;28;19932;-70
2023/11/24 00:28:58;;;;;;;;;;;;;;;;;;5008877;28;20000;-69
2023/11/24 00:31:25;;;;;;;;;;;;;;;;;;4990566;28;20024;-70
2023/11/24 00:33:52;;;;;;;;;;;;;;;;;;4991044;28;20017;-69
2023/11/24 00:36:20;;;;;;;;;;;;;;;;;;4992339;28;20356;-70
2023/11/24 00:38:49;;;;;;;;;;;;;;;;;;4991970;28;19925;-69
2023/11/24 00:41:16;;;;;;;;;;;;;;;;;;4990535;28;19930;-69
2023/11/24 00:43:43;;;;;;;;;;;;;;;;;;4990865;28;19976;-69
2023/11/24 00:46:11;;;;;;;;;;;;;;;;;;4989793;28;20005;-70
2023/11/24 00:48:38;;;;;;;;;;;;;;;;;;4990453;28;20460;-70
2023/11/24 00:51:05;;;;;;;;;;;;;;;;;;4986759;28;19974;-70
2023/11/24 00:53:32;;;;;;;;;;;;;;;;;;4980187;28;20417;-69
2023/11/24 00:55:59;;;;;;;;;;;;;;;;;;4984708;28;20005;-69
2023/11/24 00:58:26;;;;;;;;;;;;;;;;;;4987321;28;20012;-70
2023/11/24 01:00:53;;;;;;;;;;;;;;;;;;4991277;28;20017;-69
2023/11/24 01:03:20;;;;;;;;;;;;;;;;;;4992982;28;20445;-69
2023/11/24 01:05:49;;;;;;;;;;;;;;;;;;4992931;28;19925;-70
2023/11/24 01:08:16;;;;;;;;;;;;;;;;;;4985883;28;20341;-70
2023/11/24 01:10:43;;;;;;;;;;;;;;;;;;4991197;28;20270;-70
2023/11/24 01:13:10;;;;;;;;;;;;;;;;;;4992009;28;19933;-70
2023/11/24 01:15:38;;;;;;;;;;;;;;;;;;4989020;28;20009;-70
2023/11/24 01:18:06;;;;;;;;;;;;;;;;;;5001870;28;19948;-69
2023/11/24 01:20:33;;;;;;;;;;;;;;;;;;4996993;28;20053;-70
2023/11/24 01:23:00;;;;;;;;;;;;;;;;;;5006932;28;20003;-70
2023/11/24 01:25:27;;;;;;;;;;;;;;;;;;4989278;28;20304;-69
2023/11/24 01:27:55;;;;;;;;;;;;;;;;;;5006855;28;20029;-71
2023/11/24 01:30:22;;;;;;;;;;;;;;;;;;4996613;28;20015;-69
2023/11/24 01:32:49;;;;;;;;;;;;;;;;;;4992205;28;19926;-69
2023/11/24 01:35:16;;;;;;;;;;;;;;;;;;4989118;28;20026;-70
2023/11/24 01:37:43;;;;;;;;;;;;;;;;;;4991584;28;19926;-70
2023/11/24 01:40:10;;;;;;;;;;;;;;;;;;4994085;28;19926;-69
2023/11/24 01:42:38;;;;;;;;;;;;;;;;;;4992515;28;19926;-70
2023/11/24 01:45:07;;;;;;;;;;;;;;;;;;4994578;28;20008;-70
2023/11/24 01:47:34;;;;;;;;;;;;;;;;;;4980345;28;20045;-71
2023/11/24 01:50:01;;;;;;;;;;;;;;;;;;4992138;28;19958;-69
2023/11/24 01:52:28;;;;;;;;;;;;;;;;;;4994501;28;20016;-70
2023/11/24 01:54:55;;;;;;;;;;;;;;;;;;4993513;28;20075;-69
2023/11/24 01:57:22;;;;;;;;;;;;;;;;;;4996048;28;19932;-69
2023/11/24 01:59:49;;;;;;;;;;;;;;;;;;4992111;28;19984;-70
2023/11/24 02:02:16;;;;;;;;;;;;;;;;;;4995310;28;20008;-70
2023/11/24 02:04:43;;;;;;;;;;;;;;;;;;4993688;28;19940;-69
2023/11/24 02:07:10;;;;;;;;;;;;;;;;;;4993761;28;19933;-70
2023/11/24 02:09:37;;;;;;;;;;;;;;;;;;4995077;28;19933;-70
2023/11/24 02:12:04;;;;;;;;;;;;;;;;;;4996045;28;20017;-70
2023/11/24 02:14:31;;;;;;;;;;;;;;;;;;4996124;28;19933;-70
2023/11/24 02:16:59;;;;;;;;;;;;;;;;;;4982595;28;20357;-69
2023/11/24 02:19:26;;;;;;;;;;;;;;;;;;4992030;28;19933;-70
2023/11/24 02:21:54;;;;;;;;;;;;;;;;;;5010588;28;20305;-70
2023/11/24 02:24:20;;;;;;;;;;;;;;;;;;4999196;28;19926;-70
2023/11/24 02:26:47;;;;;;;;;;;;;;;;;;5007217;28;19964;-70
2023/11/24 02:29:14;;;;;;;;;;;;;;;;;;4999211;28;19926;-70
2023/11/24 02:31:42;;;;;;;;;;;;;;;;;;5011914;28;20392;-70
2023/11/24 02:34:09;;;;;;;;;;;;;;;;;;4989711;28;20072;-70
2023/11/24 02:36:37;;;;;;;;;;;;;;;;;;5005009;28;20453;-70
2023/11/24 02:39:05;;;;;;;;;;;;;;;;;;4993128;28;20005;-70
2023/11/24 02:41:32;;;;;;;;;;;;;;;;;;4992686;28;19932;-70
2023/11/24 02:43:59;;;;;;;;;;;;;;;;;;4995310;28;20017;-70
2023/11/24 02:46:26;;;;;;;;;;;;;;;;;;4992325;28;19979;-70
2023/11/24 02:48:53;;;;;;;;;;;;;;;;;;4989918;28;19932;-70
2023/11/24 02:51:20;;;;;;;;;;;;;;;;;;4991804;28;20329;-70
2023/11/24 02:53:47;;;;;;;;;;;;;;;;;;5001545;28;20057;-70
2023/11/24 02:56:14;;;;;;;;;;;;;;;;;;4996702;28;19934;-70
2023/11/24 02:58:41;;;;;;;;;;;;;;;;;;4995130;28;20655;-70
2023/11/24 03:01:08;;;;;;;;;;;;;;;;;;4993223;28;20351;-71
2023/11/24 03:03:33;;;;;;;;;;;;;;;;;;4993476;28;19926;-70
2023/11/24 03:06:00;;;;;;;;;;;;;;;;;;4994647;28;20429;-71
2023/11/24 03:08:29;;;;;;;;;;;;;;;;;;4983812;28;19965;-71
2023/11/24 03:10:56;;;;;;;;;;;;;;;;;;4991819;28;19948;-70
2023/11/24 03:13:23;;;;;;;;;;;;;;;;;;4989231;28;20293;-70
2023/11/24 03:15:50;;;;;;;;;;;;;;;;;;4985737;28;19926;-70
2023/11/24 03:18:17;;;;;;;;;;;;;;;;;;4991240;28;19933;-70
2023/11/24 03:20:45;;;;;;;;;;;;;;;;;;4993736;28;20440;-71
2023/11/24 03:23:12;;;;;;;;;;;;;;;;;;4991493;28;19933;-70
2023/11/24 03:25:39;;;;;;;;;;;;;;;;;;4980840;28;20344;-70
2023/11/24 03:28:06;;;;;;;;;;;;;;;;;;4985401;28;20373;-71
2023/11/24 03:30:33;;;;;;;;;;;;;;;;;;4985842;28;20479;-69
2023/11/24 03:33:00;;;;;;;;;;;;;;;;;;4991540;28;19925;-70
2023/11/24 03:35:27;;;;;;;;;;;;;;;;;;4997686;28;19977;-69
2023/11/24 03:37:54;;;;;;;;;;;;;;;;;;5006314;28;20016;-70
2023/11/24 03:40:21;;;;;;;;;;;;;;;;;;4989550;28;19956;-69
2023/11/24 03:42:48;;;;;;;;;;;;;;;;;;4993099;28;20037;-70
2023/11/24 03:45:15;;;;;;;;;;;;;;;;;;4990795;28;20396;-70
2023/11/24 03:47:42;;;;;;;;;;;;;;;;;;4989965;28;20475;-70
2023/11/24 03:50:09;;;;;;;;;;;;;;;;;;4983898;28;19961;-71
2023/11/24 03:52:36;;;;;;;;;;;;;;;;;;4983798;28;20012;-71
2023/11/24 03:55:03;;;;;;;;;;;;;;;;;;4991669;28;19949;-71
2023/11/24 03:57:30;;;;;;;;;;;;;;;;;;4991612;28;20025;-70
2023/11/24 03:59:57;;;;;;;;;;;;;;;;;;4992295;28;20033;-70
2023/11/24 04:02:24;;;;;;;;;;;;;;;;;;4992765;28;20013;-71
2023/11/24 04:04:53;;;;;;;;;;;;;;;;;;4976566;28;21389;-71
2023/11/24 04:07:20;;;;;;;;;;;;;;;;;;4989535;28;19926;-70
2023/11/24 04:09:47;;;;;;;;;;;;;;;;;;4992473;28;19930;-70
2023/11/24 04:12:14;;;;;;;;;;;;;;;;;;4992013;28;19926;-70
2023/11/24 04:14:41;;;;;;;;;;;;;;;;;;4988137;28;19933;-71
2023/11/24 04:17:09;;;;;;;;;;;;;;;;;;4992925;28;19932;-70
2023/11/24 04:19:36;;;;;;;;;;;;;;;;;;4993290;28;19926;-69
2023/11/24 04:22:03;;;;;;;;;;;;;;;;;;4993604;28;19929;-70
2023/11/24 04:24:30;;;;;;;;;;;;;;;;;;4988876;28;19926;-70
2023/11/24 04:26:58;;;;;;;;;;;;;;;;;;4989731;28;19930;-70
2023/11/24 04:29:25;;;;;;;;;;;;;;;;;;4987665;28;19926;-70
2023/11/24 04:31:52;;;;;;;;;;;;;;;;;;4987224;28;19927;-70
2023/11/24 04:34:22;;;;;;;;;;;;;;;;;;4988403;28;20010;-70
2023/11/24 04:36:50;;;;;;;;;;;;;;;;;;4988795;28;19934;-71
2023/11/24 04:39:18;;;;;;;;;;;;;;;;;;4989144;28;19926;-71
2023/11/24 04:41:45;;;;;;;;;;;;;;;;;;4987560;28;19972;-71
2023/11/24 04:44:13;;;;;;;;;;;;;;;;;;4990649;28;20020;-69
2023/11/24 04:46:40;;;;;;;;;;;;;;;;;;4987990;28;19972;-70
2023/11/24 04:49:07;;;;;;;;;;;;;;;;;;4982140;28;20404;-70
2023/11/24 04:51:34;;;;;;;;;;;;;;;;;;4988296;28;20024;-70
2023/11/24 04:54:02;;;;;;;;;;;;;;;;;;4999220;28;20012;-70
2023/11/24 04:56:29;;;;;;;;;;;;;;;;;;5000302;28;19972;-70
2023/11/24 04:58:56;;;;;;;;;;;;;;;;;;4986691;28;19925;-70
2023/11/24 05:01:23;;;;;;;;;;;;;;;;;;4994184;28;19932;-71
2023/11/24 05:03:51;;;;;;;;;;;;;;;;;;4991330;28;19933;-70
2023/11/24 05:06:20;;;;;;;;;;;;;;;;;;4998275;28;20407;-70
2023/11/24 05:08:47;;;;;;;;;;;;;;;;;;4989079;28;20360;-70
2023/11/24 05:11:14;;;;;;;;;;;;;;;;;;4990064;28;19961;-71
2023/11/24 05:13:41;;;;;;;;;;;;;;;;;;4984934;28;19973;-70
2023/11/24 05:16:09;;;;;;;;;;;;;;;;;;4985398;28;21286;-69
2023/11/24 05:18:39;;;;;;;;;;;;;;;;;;4988246;28;19926;-71
2023/11/24 05:21:06;;;;;;;;;;;;;;;;;;4989923;28;20004;-70
2023/11/24 05:23:34;;;;;;;;;;;;;;;;;;4980700;28;19930;-69
2023/11/24 05:26:01;;;;;;;;;;;;;;;;;;4988197;28;20009;-69
2023/11/24 05:28:28;;;;;;;;;;;;;;;;;;4988386;28;20013;-68
2023/11/24 05:30:55;;;;;;;;;;;;;;;;;;4982706;28;19961;-69
2023/11/24 05:33:22;;;;;;;;;;;;;;;;;;4983331;28;19926;-69
2023/11/24 05:35:49;;;;;;;;;;;;;;;;;;4989306;28;20362;-68
2023/11/24 05:38:16;;;;;;;;;;;;;;;;;;4988242;28;19948;-68
2023/11/24 05:40:45;;;;;;;;;;;;;;;;;;4980252;28;19972;-68
2023/11/24 05:43:13;;;;;;;;;;;;;;;;;;4985146;28;19926;-70
2023/11/24 05:45:40;;;;;;;;;;;;;;;;;;4988179;28;19941;-69
2023/11/24 05:48:06;;;;;;;;;;;;;;;;;;4989030;28;19930;-69
2023/11/24 05:50:34;;;;;;;;;;;;;;;;;;4986220;28;20407;-69
2023/11/24 05:53:01;;;;;;;;;;;;;;;;;;4988040;28;19929;-69
2023/11/24 05:55:28;;;;;;;;;;;;;;;;;;4989406;28;19925;-70
2023/11/24 05:57:56;;;;;;;;;;;;;;;;;;4990163;28;20363;-69
2023/11/24 06:00:24;;;;;;;;;;;;;;;;;;4991716;28;19986;-70
2023/11/24 06:02:51;;;;;;;;;;;;;;;;;;4988318;28;19941;-69
2023/11/24 06:05:18;;;;;;;;;;;;;;;;;;4988567;28;20013;-70
2023/11/24 06:07:45;;;;;;;;;;;;;;;;;;4987617;28;19936;-70
2023/11/24 06:10:20;;;;;;;;;;;;;;;;;;4986244;28;20027;-70
2023/11/24 06:12:48;;;;;;;;;;;;;;;;;;4986780;28;20365;-68
2023/11/24 06:15:15;;;;;;;;;;;;;;;;;;4988139;28;20083;-69
2023/11/24 06:17:42;;;;;;;;;;;;;;;;;;4984157;28;20013;-72
2023/11/24 06:20:10;;;;;;;;;;;;;;;;;;4986046;28;19969;-72
2023/11/24 06:22:38;;;;;;;;;;;;;;;;;;4981376;28;19934;-72
2023/11/24 06:25:05;;;;;;;;;;;;;;;;;;4945998;28;19933;-72
2023/11/24 06:27:32;;;;;;;;;;;;;;;;;;4993428;28;19926;-71
2023/11/24 06:29:59;;;;;;;;;;;;;;;;;;4994413;28;20013;-70
2023/11/24 06:32:26;;;;;;;;;;;;;;;;;;4985147;28;20475;-72
2023/11/24 06:34:53;;;;;;;;;;;;;;;;;;4988872;28;19933;-73
2023/11/24 06:37:20;;;;;;;;;;;;;;;;;;4993647;28;20558;-69
2023/11/24 06:39:47;;;;;;;;;;;;;;;;;;4992714;28;20361;-69
2023/11/24 06:42:14;;;;;;;;;;;;;;;;;;4991561;28;19934;-70
2023/11/24 06:44:41;;;;;;;;;;;;;;;;;;4991444;28;19936;-70
2023/11/24 06:47:08;;;;;;;;;;;;;;;;;;4993318;28;20654;-68
2023/11/24 06:49:35;;;;;;;;;;;;;;;;;;4992942;28;19988;-70
2023/11/24 06:52:02;;;;;;;;;;;;;;;;;;4977684;28;20031;-69
2023/11/24 06:54:29;;;;;;;;;;;;;;;;;;4974609;28;19933;-68
2023/11/24 06:56:56;;;;;;;;;;;;;;;;;;4973322;28;20409;-69
2023/11/24 06:59:23;;;;;;;;;;;;;;;;;;4975857;28;19930;-70
2023/11/24 07:01:50;;;;;;;;;;;;;;;;;;4975885;28;19929;-70
2023/11/24 07:04:18;;;;;;;;;;;;;;;;;;4979157;28;20015;-71
2023/11/24 07:06:45;;;;;;;;;;;;;;;;;;4974808;28;19953;-69
2023/11/24 07:09:12;;;;;;;;;;;;;;;;;;4973088;28;20007;-70
2023/11/24 07:11:41;;;;;;;;;;;;;;;;;;4975120;28;20352;-71
2023/11/24 07:14:08;;;;;;;;;;;;;;;;;;4977619;28;19933;-69
2023/11/24 07:16:35;;;;;;;;;;;;;;;;;;4991516;28;20418;-70
2023/11/24 07:19:03;;;;;;;;;;;;;;;;;;4990838;28;19925;-69
2023/11/24 07:21:30;;;;;;;;;;;;;;;;;;4986220;28;19940;-68
2023/11/24 07:23:57;;;;;;;;;;;;;;;;;;4985801;28;19988;-68
2023/11/24 07:26:24;;;;;;;;;;;;;;;;;;4989026;28;19932;-68
2023/11/24 07:28:51;;;;;;;;;;;;;;;;;;4989695;28;19925;-68
2023/11/24 07:31:18;;;;;;;;;;;;;;;;;;4987034;28;19965;-68
2023/11/24 07:33:48;;;;;;;;;;;;;;;;;;4987402;28;20024;-67
2023/11/24 07:36:15;;;;;;;;;;;;;;;;;;4988873;28;20409;-68
2023/11/24 07:38:44;;;;;;;;;;;;;;;;;;4989026;28;20009;-67
2023/11/24 07:41:11;;;;;;;;;;;;;;;;;;4990283;28;19925;-68
2023/11/24 07:43:38;;;;;;;;;;;;;;;;;;4992286;28;20285;-68
2023/11/24 07:46:07;;;;;;;;;;;;;;;;;;4988719;28;20028;-67
2023/11/24 07:48:34;;;;;;;;;;;;;;;;;;4990734;28;20385;-67
2023/11/24 07:51:01;;;;;;;;;;;;;;;;;;4984984;28;19988;-68
2023/11/24 07:53:32;;;;;;;;;;;;;;;;;;4987855;28;20024;-68
2023/11/24 07:55:59;;;;;;;;;;;;;;;;;;4986628;28;19930;-67
2023/11/24 07:58:34;;;;;;;;;;;;;;;;;;4984474;28;20062;-68
2023/11/24 08:01:01;;;;;;;;;;;;;;;;;;4989022;28;19930;-67
2023/11/24 08:03:29;;;;;;;;;;;;;;;;;;4988563;28;19933;-67
2023/11/24 08:05:56;;;;;;;;;;;;;;;;;;4989308;28;20385;-69
2023/11/24 08:08:23;;;;;;;;;;;;;;;;;;4984515;28;19988;-68
2023/11/24 08:10:50;;;;;;;;;;;;;;;;;;5006659;28;19993;-67
2023/11/24 08:13:19;;;;;;;;;;;;;;;;;;4982772;28;19930;-67
2023/11/24 08:15:46;;;;;;;;;;;;;;;;;;5002832;28;19925;-67
2023/11/24 08:18:13;;;;;;;;;;;;;;;;;;4990104;28;20107;-66
2023/11/24 08:20:41;;;;;;;;;;;;;;;;;;4996595;28;20373;-67
2023/11/24 08:23:10;;;;;;;;;;;;;;;;;;4988059;28;19973;-67
2023/11/24 08:25:37;;;;;;;;;;;;;;;;;;4997747;28;19926;-77
2023/11/24 08:28:05;;;;;;;;;;;;;;;;;;4989641;28;19926;-79
2023/11/24 08:30:33;;;;;;;;;;;;;;;;;;4974284;28;19937;-76
2023/11/24 08:33:00;;;;;;;;;;;;;;;;;;4977920;28;20373;-76
2023/11/24 08:35:27;;;;;;;;;;;;;;;;;;4984065;28;19926;-77
2023/11/24 08:37:54;;;;;;;;;;;;;;;;;;4985826;28;20412;-76
2023/11/24 08:40:24;;;;;;;;;;;;;;;;;;4997049;28;19926;-77
2023/11/24 08:42:51;;;;;;;;;;;;;;;;;;4984060;28;20439;-77
2023/11/24 08:45:18;;;;;;;;;;;;;;;;;;4990875;28;19969;-79
2023/11/24 08:47:46;;;;;;;;;;;;;;;;;;4987165;28;20012;-77
2023/11/24 08:50:13;;;;;;;;;;;;;;;;;;4986791;28;19966;-83
2023/11/24 08:52:40;;;;;;;;;;;;;;;;;;4982474;28;19961;-75
2023/11/24 08:55:08;;;;;;;;;;;;;;;;;;4976425;28;19953;-78
2023/11/24 08:57:35;;;;;;;;;;;;;;;;;;4985193;28;20274;-78
2023/11/24 09:00:02;;;;;;;;;;;;;;;;;;4985578;28;19925;-77
2023/11/24 09:02:30;;;;;;;;;;;;;;;;;;4989676;28;20510;-76
2023/11/24 09:04:58;;;;;;;;;;;;;;;;;;5001726;28;19925;-76
2023/11/24 09:07:26;;;;;;;;;;;;;;;;;;4998626;28;20400;-76
2023/11/24 09:09:53;;;;;;;;;;;;;;;;;;4990121;28;19926;-77
2023/11/24 09:12:20;;;;;;;;;;;;;;;;;;4988854;28;20029;-75
2023/11/24 09:14:47;;;;;;;;;;;;;;;;;;5003330;28;19933;-76
2023/11/24 09:17:14;;;;;;;;;;;;;;;;;;5006599;28;20401;-77
2023/11/24 09:19:41;;;;;;;;;;;;;;;;;;5000385;28;19961;-75
2023/11/24 09:22:10;;;;;;;;;;;;;;;;;;4989658;28;19930;-75
2023/11/24 09:24:37;;;;;;;;;;;;;;;;;;4973703;28;19926;-77
2023/11/24 09:27:04;;;;;;;;;;;;;;;;;;4990416;28;20013;-77
2023/11/24 09:29:31;;;;;;;;;;;;;;;;;;4984660;28;20021;-79
2023/11/24 09:31:59;;;;;;;;;;;;;;;;;;4990199;28;19930;-75
2023/11/24 09:34:28;;;;;;;;;;;;;;;;;;4989972;28;20274;-77
2023/11/24 09:36:55;;;;;;;;;;;;;;;;;;4991349;28;19932;-78
2023/11/24 09:39:26;;;;;;;;;;;;;;;;;;4986831;28;19999;-78
2023/11/24 09:41:53;;;;;;;;;;;;;;;;;;4989651;28;19926;-77
2023/11/24 09:44:20;;;;;;;;;;;;;;;;;;4989230;28;19981;-78
2023/11/24 09:46:47;;;;;;;;;;;;;;;;;;4976922;28;19932;-81
2023/11/24 09:49:15;;;;;;;;;;;;;;;;;;4983531;28;19955;-80
2023/11/24 09:51:42;;;;;;;;;;;;;;;;;;4979309;28;19926;-77
2023/11/24 09:54:08;;;;;;;;;;;;;;;;;;4982019;28;19933;-83
2023/11/24 09:56:35;;;;;;;;;;;;;;;;;;4988955;28;19926;-71
2023/11/24 09:59:06;;;;;;;;;;;;;;;;;;4994360;28;20440;-73
2023/11/24 10:01:36;;;;;;;;;;;;;;;;;;4985854;28;19980;-73
2023/11/24 10:04:05;;;;;;;;;;;;;;;;;;4989305;28;19949;-77
2023/11/24 10:06:33;;;;;;;;;;;;;;;;;;4985417;28;19956;-71
2023/11/24 10:09:00;;;;;;;;;;;;;;;;;;4985144;28;20016;-76
2023/11/24 10:11:29;;;;;;;;;;;;;;;;;;4990433;28;19930;-74
2023/11/24 10:13:56;;;;;;;;;;;;;;;;;;4998483;28;19989;-72
2023/11/24 10:16:23;;;;;;;;;;;;;;;;;;4991813;28;20405;-74
2023/11/24 10:18:50;;;;;;;;;;;;;;;;;;4999502;28;19988;-73
2023/11/24 10:21:17;;;;;;;;;;;;;;;;;;4993419;28;19925;-75
2023/11/24 10:23:44;;;;;;;;;;;;;;;;;;4985861;28;20445;-73
2023/11/24 10:26:11;;;;;;;;;;;;;;;;;;4987568;28;19972;-74
2023/11/24 10:28:38;;;;;;;;;;;;;;;;;;4992337;28;19930;-73
2023/11/24 10:31:07;;;;;;;;;;;;;;;;;;4992346;28;19926;-73
2023/11/24 10:33:36;;;;;;;;;;;;;;;;;;4994665;28;20333;-73
2023/11/24 10:36:03;;;;;;;;;;;;;;;;;;4989549;28;19933;-74
2023/11/24 10:38:31;;;;;;;;;;;;;;;;;;4992913;28;19929;-74
2023/11/24 10:40:58;;;;;;;;;;;;;;;;;;4990043;28;19932;-73
2023/11/24 10:43:25;;;;;;;;;;;;;;;;;;4992097;28;20297;-79
2023/11/24 10:45:52;;;;;;;;;;;;;;;;;;4990658;28;19932;-76
2023/11/24 10:48:19;;;;;;;;;;;;;;;;;;4990511;28;20288;-72
2023/11/24 10:50:46;;;;;;;;;;;;;;;;;;4992144;28;19976;-73
2023/11/24 10:53:13;;;;;;;;;;;;;;;;;;4987613;28;19926;-73
2023/11/24 10:55:40;;;;;;;;;;;;;;;;;;4994701;28;20025;-73
2023/11/24 10:58:07;;;;;;;;;;;;;;;;;;4989761;28;19968;-74
2023/11/24 11:00:36;;;;;;;;;;;;;;;;;;4996919;28;19937;-73
2023/11/24 11:03:05;;;;;;;;;;;;;;;;;;4987273;28;19925;-73
2023/11/24 11:05:34;;;;;;;;;;;;;;;;;;4992703;28;19929;-73
2023/11/24 11:08:03;;;;;;;;;;;;;;;;;;4992038;28;20328;-73
2023/11/24 11:10:31;;;;;;;;;;;;;;;;;;4989361;28;20048;-74
2023/11/24 11:12:58;;;;;;;;;;;;;;;;;;4989918;28;19983;-74
2023/11/24 11:15:25;;;;;;;;;;;;;;;;;;5004435;28;19925;-73
2023/11/24 11:17:52;;;;;;;;;;;;;;;;;;5002941;28;20280;-74
2023/11/24 11:20:22;;;;;;;;;;;;;;;;;;4991121;28;19972;-72
2023/11/24 11:22:49;;;;;;;;;;;;;;;;;;4996931;28;20054;-74
2023/11/24 11:25:15;;;;;;;;;;;;;;;;;;4998425;28;20013;-74
2023/11/24 11:27:45;;;;;;;;;;;;;;;;;;4986850;28;19926;-76
2023/11/24 11:30:12;;;;;;;;;;;;;;;;;;4986416;28;19976;-77
2023/11/24 11:32:39;;;;;;;;;;;;;;;;;;4990820;28;19927;-75
2023/11/24 11:35:06;;;;;;;;;;;;;;;;;;4991577;28;20025;-75
2023/11/24 11:37:33;;;;;;;;;;;;;;;;;;4990508;28;19926;-76
2023/11/24 11:40:00;;;;;;;;;;;;;;;;;;4991618;28;20397;-72
2023/11/24 11:42:31;;;;;;;;;;;;;;;;;;4989048;28;19957;-72
2023/11/24 11:44:58;;;;;;;;;;;;;;;;;;4991849;28;19937;-72
2023/11/24 11:47:26;;;;;;;;;;;;;;;;;;4986351;28;19926;-72
2023/11/24 11:49:53;;;;;;;;;;;;;;;;;;4995809;28;19933;-73
2023/11/24 11:52:21;;;;;;;;;;;;;;;;;;4984429;28;19930;-73
2023/11/24 11:54:49;;;;;;;;;;;;;;;;;;4980650;28;19926;-73
2023/11/24 11:57:16;;;;;;;;;;;;;;;;;;4983618;28;19957;-72
2023/11/24 11:59:46;;;;;;;;;;;;;;;;;;4989791;28;19941;-75
2023/11/24 12:02:15;;;;;;;;;;;;;;;;;;4987418;28;19988;-73
2023/11/24 12:04:42;;;;;;;;;;;;;;;;;;4984688;28;19925;-73
2023/11/24 12:07:10;;;;;;;;;;;;;;;;;;4984406;28;19973;-72
2023/11/24 12:09:39;;;;;;;;;;;;;;;;;;4983991;28;20008;-73
2023/11/24 12:12:06;;;;;;;;;;;;;;;;;;4980444;28;19991;-74
2023/11/24 12:14:33;;;;;;;;;;;;;;;;;;4982048;28;19933;-72
2023/11/24 12:17:00;;;;;;;;;;;;;;;;;;4983809;28;19934;-72
2023/11/24 12:19:30;;;;;;;;;;;;;;;;;;4986965;28;20475;-72
2023/11/24 12:21:57;;;;;;;;;;;;;;;;;;4981771;28;19958;-72
2023/11/24 12:24:26;;;;;;;;;;;;;;;;;;4996136;28;19961;-72
2023/11/24 12:26:53;;;;;;;;;;;;;;;;;;4989455;28;19926;-72
2023/11/24 12:29:21;;;;;;;;;;;;;;;;;;4993571;28;19926;-73
2023/11/24 12:31:48;;;;;;;;;;;;;;;;;;5003507;28;20035;-71
2023/11/24 12:34:15;;;;;;;;;;;;;;;;;;5004378;28;19934;-73
2023/11/24 12:36:42;;;;;;;;;;;;;;;;;;4987579;28;19968;-73
2023/11/24 12:39:13;;;;;;;;;;;;;;;;;;4987339;28;19926;-72
2023/11/24 12:41:40;;;;;;;;;;;;;;;;;;4992939;28;19933;-71
2023/11/24 12:44:07;;;;;;;;;;;;;;;;;;4994503;28;19932;-71
2023/11/24 12:46:34;;;;;;;;;;;;;;;;;;4990602;28;19933;-73
2023/11/24 12:49:01;;;;;;;;;;;;;;;;;;4992762;28;19930;-72
2023/11/24 12:51:28;;;;;;;;;;;;;;;;;;4990441;28;20344;-72
2023/11/24 12:53:55;;;;;;;;;;;;;;;;;;4990732;28;20261;-72
2023/11/24 12:56:23;;;;;;;;;;;;;;;;;;4990924;28;19961;-72
2023/11/24 12:58:50;;;;;;;;;;;;;;;;;;4989305;28;19972;-72
2023/11/24 13:01:18;;;;;;;;;;;;;;;;;;4986124;28;20029;-74
2023/11/24 13:03:47;;;;;;;;;;;;;;;;;;4987130;28;19984;-73
2023/11/24 13:06:14;;;;;;;;;;;;;;;;;;4998905;28;19941;-73
2023/11/24 13:08:42;;;;;;;;;;;;;;;;;;4989137;28;19926;-71
2023/11/24 13:11:09;;;;;;;;;;;;;;;;;;4988453;28;19961;-71
2023/11/24 13:13:36;;;;;;;;;;;;;;;;;;4988422;28;19972;-72
2023/11/24 13:16:07;;;;;;;;;;;;;;;;;;4991569;28;19973;-72
2023/11/24 13:18:35;;;;;;;;;;;;;;;;;;4981870;28;19937;-73
2023/11/24 13:21:08;;;;;;;;;;;;;;;;;;4997047;28;20115;-75
2023/11/24 13:23:35;;;;;;;;;;;;;;;;;;4979813;28;20377;-75
2023/11/24 13:26:03;;;;;;;;;;;;;;;;;;4988701;28;19961;-77
2023/11/24 13:28:30;;;;;;;;;;;;;;;;;;4986713;28;19930;-73
2023/11/24 13:30:57;;;;;;;;;;;;;;;;;;4988509;28;20426;-77
2023/11/24 13:33:24;;;;;;;;;;;;;;;;;;4994520;28;20020;-75
2023/11/24 13:35:51;;;;;;;;;;;;;;;;;;4983644;28;20124;-74
2023/11/24 13:38:19;;;;;;;;;;;;;;;;;;4991652;28;19941;-75
2023/11/24 13:40:46;;;;;;;;;;;;;;;;;;4999418;28;19945;-74
2023/11/24 13:43:13;;;;;;;;;;;;;;;;;;5005004;28;19974;-74
2023/11/24 13:45:41;;;;;;;;;;;;;;;;;;4996015;28;19929;-75
2023/11/24 13:48:09;;;;;;;;;;;;;;;;;;4991308;28;20008;-75
2023/11/24 13:50:37;;;;;;;;;;;;;;;;;;5004059;28;19925;-78
2023/11/24 13:53:04;;;;;;;;;;;;;;;;;;4996075;28;20013;-75
2023/11/24 13:55:36;;;;;;;;;;;;;;;;;;4988016;28;19926;-78
2023/11/24 13:58:03;;;;;;;;;;;;;;;;;;5003224;28;20284;-78
2023/11/24 14:00:31;;;;;;;;;;;;;;;;;;4996735;28;20028;-78
2023/11/24 14:02:58;;;;;;;;;;;;;;;;;;4992182;28;20293;-75
2023/11/24 14:05:25;;;;;;;;;;;;;;;;;;4990401;28;20355;-75
2023/11/24 14:07:52;;;;;;;;;;;;;;;;;;4988749;28;19926;-75
2023/11/24 14:10:19;;;;;;;;;;;;;;;;;;4985946;28;19989;-74
2023/11/24 14:12:46;;;;;;;;;;;;;;;;;;4977095;28;20345;-73
2023/11/24 14:15:13;;;;;;;;;;;;;;;;;;4991804;28;19944;-72
2023/11/24 14:17:41;;;;;;;;;;;;;;;;;;4981937;28;19965;-73
2023/11/24 14:20:08;;;;;;;;;;;;;;;;;;4984490;28;19933;-72
2023/11/24 14:22:36;;;;;;;;;;;;;;;;;;4987537;28;19962;-71
2023/11/24 14:25:06;;;;;;;;;;;;;;;;;;4983604;28;20865;-73
2023/11/24 14:27:33;;;;;;;;;;;;;;;;;;4986816;28;19925;-73
2023/11/24 14:30:02;;;;;;;;;;;;;;;;;;4989507;28;19934;-73
2023/11/24 14:32:32;;;;;;;;;;;;;;;;;;4990896;28;19937;-76
2023/11/24 14:34:59;;;;;;;;;;;;;;;;;;4986318;28;19937;-78
2023/11/24 14:37:27;;;;;;;;;;;;;;;;;;4983277;28;19926;-77
2023/11/24 14:39:54;;;;;;;;;;;;;;;;;;4998459;28;19934;-79
2023/11/24 14:42:21;;;;;;;;;;;;;;;;;;5001313;28;19953;-78
2023/11/24 14:44:48;;;;;;;;;;;;;;;;;;4996719;28;19957;-76
2023/11/24 14:47:15;;;;;;;;;;;;;;;;;;4986230;28;20505;-78
2023/11/24 14:49:42;;;;;;;;;;;;;;;;;;4976679;28;20415;-78
2023/11/24 14:52:09;;;;;;;;;;;;;;;;;;4991270;28;19926;-76
2023/11/24 14:54:37;;;;;;;;;;;;;;;;;;4999048;28;19980;-78
2023/11/24 14:57:05;;;;;;;;;;;;;;;;;;4994230;28;19940;-77
2023/11/24 14:59:32;;;;;;;;;;;;;;;;;;5011347;28;20320;-78
2023/11/24 15:02:06;;;;;;;;;;;;;;;;;;4986057;28;19989;-78
2023/11/24 15:04:33;;;;;;;;;;;;;;;;;;4987089;28;19925;-76
2023/11/24 15:07:01;;;;;;;;;;;;;;;;;;4984831;28;19929;-77
2023/11/24 15:09:28;;;;;;;;;;;;;;;;;;4990152;28;19933;-78
2023/11/24 15:11:55;;;;;;;;;;;;;;;;;;4988619;28;19936;-74
2023/11/24 15:14:30;;;;;;;;;;;;;;;;;;4991632;28;19929;-80
2023/11/24 15:16:59;;;;;;;;;;;;;;;;;;4988916;28;19933;-77
2023/11/24 15:19:27;;;;;;;;;;;;;;;;;;4987412;28;20003;-76
2023/11/24 15:21:54;;;;;;;;;;;;;;;;;;4990982;28;19941;-81
2023/11/24 15:24:21;;;;;;;;;;;;;;;;;;4992206;28;19926;-78
2023/11/24 15:26:51;;;;;;;;;;;;;;;;;;5026911;22;20008;-73
2023/11/24 15:29:18;;;;;;;;;;;;;;;;;;5024593;28;20293;-75
2023/11/24 15:31:45;;;;;;;;;;;;;;;;;;5026642;28;19925;-76
2023/11/24 15:34:13;;;;;;;;;;;;;;;;;;5026755;28;20376;-77
2023/11/24 15:36:40;;;;;;;;;;;;;;;;;;5028775;28;19932;-74
2023/11/24 15:39:12;;;;;;;;;;;;;;;;;;5026429;28;19929;-75
2023/11/24 15:41:41;;;;;;;;;;;;;;;;;;5025603;28;19929;-75
2023/11/24 15:44:08;;;;;;;;;;;;;;;;;;5021692;28;20307;-75
2023/11/24 15:46:36;;;;;;;;;;;;;;;;;;5029790;28;19999;-72
2023/11/24 15:49:10;;;;;;;;;;;;;;;;;;5031110;28;20759;-71
2023/11/24 15:51:39;;;;;;;;;;;;;;;;;;5025574;28;19929;-71
2023/11/24 15:54:08;;;;;;;;;;;;;;;;;;5026050;28;19929;-71
2023/11/24 15:56:38;;;;;;;;;;;;;;;;;;5024815;28;19933;-72
2023/11/24 15:59:08;;;;;;;;;;;;;;;;;;5028690;28;19959;-71
2023/11/24 16:01:37;;;;;;;;;;;;;;;;;;5027713;28;19929;-72
2023/11/24 16:04:05;;;;;;;;;;;;;;;;;;5031861;28;20395;-71
2023/11/24 16:06:32;;;;;;;;;;;;;;;;;;5029341;28;19925;-71
2023/11/24 16:09:00;;;;;;;;;;;;;;;;;;5029486;28;19929;-70
2023/11/24 16:11:28;;;;;;;;;;;;;;;;;;5026653;28;19971;-71
2023/11/24 16:13:56;;;;;;;;;;;;;;;;;;5030616;28;19940;-71
2023/11/24 16:16:23;;;;;;;;;;;;;;;;;;5027285;28;19929;-71
2023/11/24 16:18:50;;;;;;;;;;;;;;;;;;5028225;28;19929;-72
2023/11/24 16:21:17;;;;;;;;;;;;;;;;;;5025828;28;19925;-71
2023/11/24 16:23:44;;;;;;;;;;;;;;;;;;5028598;28;20076;-72
2023/11/24 16:26:12;;;;;;;;;;;;;;;;;;5030341;28;19929;-72
2023/11/24 16:28:39;;;;;;;;;;;;;;;;;;5028416;28;20364;-71
2023/11/24 16:31:08;;;;;;;;;;;;;;;;;;5029385;28;19936;-73
2023/11/24 16:33:37;;;;;;;;;;;;;;;;;;5031331;28;19944;-73
2023/11/24 16:36:04;;;;;;;;;;;;;;;;;;5024260;28;19933;-73
2023/11/24 16:38:32;;;;;;;;;;;;;;;;;;5026737;28;19932;-71
2023/11/24 16:41:03;;;;;;;;;;;;;;;;;;5031009;28;19929;-71
2023/11/24 16:43:30;;;;;;;;;;;;;;;;;;5027974;28;19926;-71
2023/11/24 16:46:00;;;;;;;;;;;;;;;;;;5022545;28;19925;-73
2023/11/24 16:48:27;;;;;;;;;;;;;;;;;;5030025;28;20020;-70